sensor_id;sensor_type;location;lat;lon;timestamp;P1;durP1;ratioP1;P2;durP2;ratioP2
25982;SDS011;13773;48.868;10.730;2023-08-06T00:00:20;7.17;;;6.27;;
25982;SDS011;13773;48.868;10.730;2023-08-06T00:02:46;7.20;;;6.50;;
25982;SDS011;13773;48.868;10.730;2023-08-06T00:05:12;6.67;;;6.07;;
25982;SDS011;13773;48.868;10.730;2023-08-06T00:07:38;6.60;;;6.00;;
25982;SDS011;13773;48.868;10.730;2023-08-06T00:10:04;6.63;;;5.77;;
25982;SDS011;13773;48.868;10.730;2023-08-06T00:12:30;6.30;;;5.70;;
25982;SDS011;13773;48.868;10.730;2023-08-06T00:14:56;6.40;;;5.80;;
25982;SDS011;13773;48.868;10.730;2023-08-06T00:17:21;6.90;;;6.00;;
25982;SDS011;13773;48.868;10.730;2023-08-06T00:19:47;6.63;;;5.47;;
25982;SDS011;13773;48.868;10.730;2023-08-06T00:22:13;5.93;;;5.33;;
25982;SDS011;13773;48.868;10.730;2023-08-06T00:24:39;8.03;;;5.90;;
25982;SDS011;13773;48.868;10.730;2023-08-06T00:27:04;6.40;;;5.20;;
25982;SDS011;13773;48.868;10.730;2023-08-06T00:29:30;5.53;;;5.03;;
25982;SDS011;13773;48.868;10.730;2023-08-06T00:31:56;9.47;;;5.60;;
25982;SDS011;13773;48.868;10.730;2023-08-06T00:34:22;6.97;;;6.27;;
25982;SDS011;13773;48.868;10.730;2023-08-06T00:36:47;8.07;;;6.77;;
25982;SDS011;13773;48.868;10.730;2023-08-06T00:39:13;8.23;;;6.53;;
25982;SDS011;13773;48.868;10.730;2023-08-06T00:41:39;7.27;;;6.57;;
25982;SDS011;13773;48.868;10.730;2023-08-06T00:44:04;8.00;;;7.17;;
25982;SDS011;13773;48.868;10.730;2023-08-06T00:46:31;7.80;;;7.00;;
25982;SDS011;13773;48.868;10.730;2023-08-06T00:48:58;7.20;;;6.50;;
25982;SDS011;13773;48.868;10.730;2023-08-06T00:51:24;7.40;;;6.70;;
25982;SDS011;13773;48.868;10.730;2023-08-06T00:53:52;6.83;;;6.20;;
25982;SDS011;13773;48.868;10.730;2023-08-06T00:56:18;8.00;;;6.63;;
25982;SDS011;13773;48.868;10.730;2023-08-06T00:58:44;6.73;;;6.03;;
25982;SDS011;13773;48.868;10.730;2023-08-06T01:01:11;8.23;;;7.43;;
25982;SDS011;13773;48.868;10.730;2023-08-06T01:03:37;8.63;;;7.27;;
25982;SDS011;13773;48.868;10.730;2023-08-06T01:06:03;7.70;;;7.00;;
25982;SDS011;13773;48.868;10.730;2023-08-06T01:08:44;8.90;;;7.53;;
25982;SDS011;13773;48.868;10.730;2023-08-06T01:11:38;8.30;;;7.50;;
25982;SDS011;13773;48.868;10.730;2023-08-06T01:17:11;8.23;;;7.43;;
25982;SDS011;13773;48.868;10.730;2023-08-06T01:19:38;8.67;;;7.77;;
25982;SDS011;13773;48.868;10.730;2023-08-06T01:22:04;8.67;;;7.43;;
25982;SDS011;13773;48.868;10.730;2023-08-06T01:24:30;9.30;;;8.30;;
25982;SDS011;13773;48.868;10.730;2023-08-06T01:30:14;8.60;;;7.80;;
25982;SDS011;13773;48.868;10.730;2023-08-06T01:32:50;9.17;;;7.90;;
25982;SDS011;13773;48.868;10.730;2023-08-06T01:35:22;10.23;;;8.77;;
25982;SDS011;13773;48.868;10.730;2023-08-06T01:37:50;8.60;;;7.80;;
25982;SDS011;13773;48.868;10.730;2023-08-06T01:40:16;10.43;;;9.27;;
25982;SDS011;13773;48.868;10.730;2023-08-06T01:42:42;9.97;;;8.97;;
25982;SDS011;13773;48.868;10.730;2023-08-06T01:45:08;8.10;;;7.30;;
25982;SDS011;13773;48.868;10.730;2023-08-06T01:47:34;10.37;;;9.27;;
25982;SDS011;13773;48.868;10.730;2023-08-06T01:50:01;11.03;;;9.80;;
25982;SDS011;13773;48.868;10.730;2023-08-06T01:52:27;10.33;;;9.07;;
25982;SDS011;13773;48.868;10.730;2023-08-06T01:54:53;12.23;;;9.33;;
25982;SDS011;13773;48.868;10.730;2023-08-06T01:57:19;10.40;;;9.30;;
25982;SDS011;13773;48.868;10.730;2023-08-06T01:59:45;11.50;;;10.27;;
25982;SDS011;13773;48.868;10.730;2023-08-06T02:02:11;11.00;;;9.90;;
25982;SDS011;13773;48.868;10.730;2023-08-06T02:04:37;12.03;;;10.83;;
25982;SDS011;13773;48.868;10.730;2023-08-06T02:07:02;12.47;;;11.23;;
25982;SDS011;13773;48.868;10.730;2023-08-06T02:09:28;12.23;;;10.90;;
25982;SDS011;13773;48.868;10.730;2023-08-06T02:11:54;15.70;;;11.77;;
25982;SDS011;13773;48.868;10.730;2023-08-06T02:14:20;13.80;;;10.57;;
25982;SDS011;13773;48.868;10.730;2023-08-06T02:16:45;12.83;;;11.37;;
25982;SDS011;13773;48.868;10.730;2023-08-06T02:19:11;12.23;;;10.17;;
25982;SDS011;13773;48.868;10.730;2023-08-06T02:21:37;10.67;;;9.57;;
25982;SDS011;13773;48.868;10.730;2023-08-06T02:24:03;9.70;;;8.70;;
25982;SDS011;13773;48.868;10.730;2023-08-06T02:26:28;11.67;;;9.27;;
25982;SDS011;13773;48.868;10.730;2023-08-06T02:28:54;10.50;;;9.40;;
25982;SDS011;13773;48.868;10.730;2023-08-06T02:31:20;11.53;;;9.70;;
25982;SDS011;13773;48.868;10.730;2023-08-06T02:33:46;12.83;;;9.37;;
25982;SDS011;13773;48.868;10.730;2023-08-06T02:36:12;13.37;;;10.37;;
25982;SDS011;13773;48.868;10.730;2023-08-06T02:38:37;13.53;;;11.27;;
25982;SDS011;13773;48.868;10.730;2023-08-06T02:41:03;15.63;;;12.27;;
25982;SDS011;13773;48.868;10.730;2023-08-06T02:43:30;19.97;;;15.13;;
25982;SDS011;13773;48.868;10.730;2023-08-06T02:46:01;19.60;;;15.67;;
25982;SDS011;13773;48.868;10.730;2023-08-06T02:48:27;23.40;;;17.73;;
25982;SDS011;13773;48.868;10.730;2023-08-06T02:50:56;25.23;;;18.90;;
25982;SDS011;13773;48.868;10.730;2023-08-06T02:53:23;27.73;;;19.83;;
25982;SDS011;13773;48.868;10.730;2023-08-06T02:55:48;23.13;;;18.13;;
25982;SDS011;13773;48.868;10.730;2023-08-06T02:58:14;26.67;;;19.50;;
25982;SDS011;13773;48.868;10.730;2023-08-06T03:00:40;24.97;;;18.47;;
25982;SDS011;13773;48.868;10.730;2023-08-06T03:03:07;25.80;;;19.30;;
25982;SDS011;13773;48.868;10.730;2023-08-06T03:05:32;24.83;;;19.53;;
25982;SDS011;13773;48.868;10.730;2023-08-06T03:07:58;27.43;;;19.77;;
25982;SDS011;13773;48.868;10.730;2023-08-06T03:10:24;31.87;;;20.87;;
25982;SDS011;13773;48.868;10.730;2023-08-06T03:12:49;28.20;;;21.13;;
25982;SDS011;13773;48.868;10.730;2023-08-06T03:15:15;31.07;;;22.10;;
25982;SDS011;13773;48.868;10.730;2023-08-06T03:17:41;30.57;;;21.00;;
25982;SDS011;13773;48.868;10.730;2023-08-06T03:20:07;27.60;;;21.37;;
25982;SDS011;13773;48.868;10.730;2023-08-06T03:22:33;34.87;;;23.03;;
25982;SDS011;13773;48.868;10.730;2023-08-06T03:24:58;29.77;;;21.23;;
25982;SDS011;13773;48.868;10.730;2023-08-06T03:27:24;31.53;;;22.80;;
25982;SDS011;13773;48.868;10.730;2023-08-06T03:29:50;34.60;;;23.27;;
25982;SDS011;13773;48.868;10.730;2023-08-06T03:32:16;34.73;;;24.70;;
25982;SDS011;13773;48.868;10.730;2023-08-06T03:34:42;35.37;;;24.50;;
25982;SDS011;13773;48.868;10.730;2023-08-06T03:37:08;32.93;;;24.97;;
25982;SDS011;13773;48.868;10.730;2023-08-06T03:39:33;35.00;;;24.20;;
25982;SDS011;13773;48.868;10.730;2023-08-06T03:41:59;39.00;;;26.53;;
25982;SDS011;13773;48.868;10.730;2023-08-06T03:44:25;34.80;;;25.23;;
25982;SDS011;13773;48.868;10.730;2023-08-06T03:46:52;37.27;;;25.87;;
25982;SDS011;13773;48.868;10.730;2023-08-06T03:49:17;37.93;;;26.50;;
25982;SDS011;13773;48.868;10.730;2023-08-06T03:51:43;38.93;;;25.87;;
25982;SDS011;13773;48.868;10.730;2023-08-06T03:54:09;38.53;;;25.83;;
25982;SDS011;13773;48.868;10.730;2023-08-06T03:56:35;34.10;;;24.27;;
25982;SDS011;13773;48.868;10.730;2023-08-06T03:59:01;34.40;;;24.13;;
25982;SDS011;13773;48.868;10.730;2023-08-06T04:01:26;37.33;;;25.13;;
25982;SDS011;13773;48.868;10.730;2023-08-06T04:03:52;35.83;;;24.30;;
25982;SDS011;13773;48.868;10.730;2023-08-06T04:06:18;31.40;;;22.97;;
25982;SDS011;13773;48.868;10.730;2023-08-06T04:08:44;37.07;;;25.53;;
25982;SDS011;13773;48.868;10.730;2023-08-06T04:11:09;34.87;;;25.00;;
25982;SDS011;13773;48.868;10.730;2023-08-06T04:13:35;33.33;;;23.53;;
25982;SDS011;13773;48.868;10.730;2023-08-06T04:16:01;36.83;;;25.07;;
25982;SDS011;13773;48.868;10.730;2023-08-06T04:18:28;35.60;;;23.43;;
25982;SDS011;13773;48.868;10.730;2023-08-06T04:20:54;34.60;;;24.53;;
25982;SDS011;13773;48.868;10.730;2023-08-06T04:23:20;31.13;;;23.83;;
25982;SDS011;13773;48.868;10.730;2023-08-06T04:25:46;35.17;;;23.60;;
25982;SDS011;13773;48.868;10.730;2023-08-06T04:28:12;32.30;;;22.90;;
25982;SDS011;13773;48.868;10.730;2023-08-06T04:30:37;27.90;;;21.93;;
25982;SDS011;13773;48.868;10.730;2023-08-06T04:33:03;28.43;;;21.40;;
25982;SDS011;13773;48.868;10.730;2023-08-06T04:35:29;28.23;;;20.37;;
25982;SDS011;13773;48.868;10.730;2023-08-06T04:37:55;28.37;;;19.97;;
25982;SDS011;13773;48.868;10.730;2023-08-06T04:40:21;24.67;;;18.77;;
25982;SDS011;13773;48.868;10.730;2023-08-06T04:42:46;23.70;;;18.70;;
25982;SDS011;13773;48.868;10.730;2023-08-06T04:45:12;23.70;;;18.40;;
25982;SDS011;13773;48.868;10.730;2023-08-06T04:47:38;21.67;;;16.97;;
25982;SDS011;13773;48.868;10.730;2023-08-06T04:50:04;20.83;;;16.63;;
25982;SDS011;13773;48.868;10.730;2023-08-06T04:52:30;21.67;;;15.80;;
25982;SDS011;13773;48.868;10.730;2023-08-06T04:54:57;20.83;;;16.27;;
25982;SDS011;13773;48.868;10.730;2023-08-06T04:57:23;18.17;;;14.57;;
25982;SDS011;13773;48.868;10.730;2023-08-06T04:59:49;18.60;;;14.77;;
25982;SDS011;13773;48.868;10.730;2023-08-06T05:02:15;16.30;;;14.03;;
25982;SDS011;13773;48.868;10.730;2023-08-06T05:04:41;14.43;;;12.77;;
25982;SDS011;13773;48.868;10.730;2023-08-06T05:07:06;15.47;;;13.27;;
25982;SDS011;13773;48.868;10.730;2023-08-06T05:09:32;13.57;;;12.03;;
25982;SDS011;13773;48.868;10.730;2023-08-06T05:12:01;13.07;;;11.40;;
25982;SDS011;13773;48.868;10.730;2023-08-06T05:14:27;13.10;;;11.70;;
25982;SDS011;13773;48.868;10.730;2023-08-06T05:16:53;12.97;;;10.83;;
25982;SDS011;13773;48.868;10.730;2023-08-06T05:19:19;13.83;;;11.27;;
25982;SDS011;13773;48.868;10.730;2023-08-06T05:21:44;12.97;;;10.60;;
25982;SDS011;13773;48.868;10.730;2023-08-06T05:24:10;11.23;;;9.97;;
25982;SDS011;13773;48.868;10.730;2023-08-06T05:26:37;12.83;;;9.93;;
25982;SDS011;13773;48.868;10.730;2023-08-06T05:29:02;13.53;;;9.87;;
25982;SDS011;13773;48.868;10.730;2023-08-06T05:31:28;10.17;;;9.17;;
25982;SDS011;13773;48.868;10.730;2023-08-06T05:33:54;9.20;;;8.30;;
25982;SDS011;13773;48.868;10.730;2023-08-06T05:36:20;9.23;;;8.23;;
25982;SDS011;13773;48.868;10.730;2023-08-06T05:38:46;11.93;;;8.87;;
25982;SDS011;13773;48.868;10.730;2023-08-06T05:41:12;9.40;;;7.93;;
25982;SDS011;13773;48.868;10.730;2023-08-06T05:43:38;8.77;;;7.87;;
25982;SDS011;13773;48.868;10.730;2023-08-06T05:46:04;7.70;;;7.00;;
25982;SDS011;13773;48.868;10.730;2023-08-06T05:48:29;8.83;;;7.70;;
25982;SDS011;13773;48.868;10.730;2023-08-06T05:50:56;8.50;;;7.47;;
25982;SDS011;13773;48.868;10.730;2023-08-06T05:53:23;7.43;;;6.73;;
25982;SDS011;13773;48.868;10.730;2023-08-06T05:55:49;6.67;;;6.03;;
25982;SDS011;13773;48.868;10.730;2023-08-06T05:58:15;7.43;;;6.20;;
25982;SDS011;13773;48.868;10.730;2023-08-06T06:00:41;6.53;;;5.93;;
25982;SDS011;13773;48.868;10.730;2023-08-06T06:03:07;8.00;;;6.13;;
25982;SDS011;13773;48.868;10.730;2023-08-06T06:05:32;7.43;;;5.10;;
25982;SDS011;13773;48.868;10.730;2023-08-06T06:07:58;5.10;;;4.70;;
25982;SDS011;13773;48.868;10.730;2023-08-06T06:10:24;4.87;;;4.47;;
25982;SDS011;13773;48.868;10.730;2023-08-06T06:12:50;4.20;;;3.77;;
25982;SDS011;13773;48.868;10.730;2023-08-06T06:15:15;5.10;;;4.70;;
25982;SDS011;13773;48.868;10.730;2023-08-06T06:17:42;5.90;;;4.20;;
25982;SDS011;13773;48.868;10.730;2023-08-06T06:20:08;7.10;;;4.23;;
25982;SDS011;13773;48.868;10.730;2023-08-06T06:22:34;4.03;;;3.57;;
25982;SDS011;13773;48.868;10.730;2023-08-06T06:25:00;5.23;;;3.80;;
25982;SDS011;13773;48.868;10.730;2023-08-06T06:27:25;5.87;;;3.83;;
25982;SDS011;13773;48.868;10.730;2023-08-06T06:29:51;3.97;;;3.10;;
25982;SDS011;13773;48.868;10.730;2023-08-06T06:32:17;3.30;;;2.80;;
25982;SDS011;13773;48.868;10.730;2023-08-06T06:34:43;3.13;;;2.83;;
25982;SDS011;13773;48.868;10.730;2023-08-06T06:37:09;2.90;;;2.70;;
25982;SDS011;13773;48.868;10.730;2023-08-06T06:39:34;4.63;;;3.03;;
25982;SDS011;13773;48.868;10.730;2023-08-06T06:42:00;5.23;;;2.70;;
25982;SDS011;13773;48.868;10.730;2023-08-06T06:44:26;2.90;;;2.63;;
25982;SDS011;13773;48.868;10.730;2023-08-06T06:46:52;3.33;;;2.80;;
25982;SDS011;13773;48.868;10.730;2023-08-06T06:49:17;3.07;;;2.77;;
25982;SDS011;13773;48.868;10.730;2023-08-06T06:51:43;3.77;;;2.90;;
25982;SDS011;13773;48.868;10.730;2023-08-06T06:54:09;2.93;;;2.30;;
25982;SDS011;13773;48.868;10.730;2023-08-06T06:56:35;2.70;;;2.30;;
25982;SDS011;13773;48.868;10.730;2023-08-06T06:59:00;2.50;;;2.30;;
25982;SDS011;13773;48.868;10.730;2023-08-06T07:01:26;3.73;;;2.43;;
25982;SDS011;13773;48.868;10.730;2023-08-06T07:03:52;3.07;;;2.77;;
25982;SDS011;13773;48.868;10.730;2023-08-06T07:06:17;3.83;;;2.40;;
25982;SDS011;13773;48.868;10.730;2023-08-06T07:08:44;3.03;;;2.53;;
25982;SDS011;13773;48.868;10.730;2023-08-06T07:11:10;3.93;;;2.33;;
25982;SDS011;13773;48.868;10.730;2023-08-06T07:13:36;3.60;;;2.43;;
25982;SDS011;13773;48.868;10.730;2023-08-06T07:16:20;2.67;;;2.30;;
25982;SDS011;13773;48.868;10.730;2023-08-06T07:18:46;2.40;;;2.10;;
25982;SDS011;13773;48.868;10.730;2023-08-06T07:21:11;2.77;;;2.20;;
25982;SDS011;13773;48.868;10.730;2023-08-06T07:23:37;3.07;;;2.40;;
25982;SDS011;13773;48.868;10.730;2023-08-06T07:26:03;2.33;;;2.07;;
25982;SDS011;13773;48.868;10.730;2023-08-06T07:28:29;2.63;;;2.20;;
25982;SDS011;13773;48.868;10.730;2023-08-06T07:30:54;2.27;;;2.10;;
25982;SDS011;13773;48.868;10.730;2023-08-06T07:33:20;3.13;;;2.20;;
25982;SDS011;13773;48.868;10.730;2023-08-06T07:35:46;2.40;;;2.20;;
25982;SDS011;13773;48.868;10.730;2023-08-06T07:38:12;3.27;;;2.20;;
25982;SDS011;13773;48.868;10.730;2023-08-06T07:40:38;3.20;;;2.23;;
25982;SDS011;13773;48.868;10.730;2023-08-06T07:43:04;2.83;;;1.80;;
25982;SDS011;13773;48.868;10.730;2023-08-06T07:45:34;4.43;;;2.07;;
25982;SDS011;13773;48.868;10.730;2023-08-06T07:48:00;2.63;;;1.70;;
25982;SDS011;13773;48.868;10.730;2023-08-06T07:50:27;2.60;;;1.90;;
25982;SDS011;13773;48.868;10.730;2023-08-06T07:52:53;2.70;;;1.83;;
25982;SDS011;13773;48.868;10.730;2023-08-06T07:55:18;2.90;;;1.70;;
25982;SDS011;13773;48.868;10.730;2023-08-06T07:57:44;1.80;;;1.50;;
25982;SDS011;13773;48.868;10.730;2023-08-06T08:00:10;1.30;;;1.20;;
25982;SDS011;13773;48.868;10.730;2023-08-06T08:02:36;1.27;;;1.10;;
25982;SDS011;13773;48.868;10.730;2023-08-06T08:05:01;1.30;;;1.10;;
25982;SDS011;13773;48.868;10.730;2023-08-06T08:07:27;1.13;;;0.90;;
25982;SDS011;13773;48.868;10.730;2023-08-06T08:09:55;2.17;;;1.20;;
25982;SDS011;13773;48.868;10.730;2023-08-06T08:12:21;1.27;;;0.60;;
25982;SDS011;13773;48.868;10.730;2023-08-06T08:14:47;2.53;;;1.00;;
25982;SDS011;13773;48.868;10.730;2023-08-06T08:17:13;2.60;;;0.87;;
25982;SDS011;13773;48.868;10.730;2023-08-06T08:19:40;1.50;;;1.07;;
25982;SDS011;13773;48.868;10.730;2023-08-06T08:22:06;2.73;;;0.70;;
25982;SDS011;13773;48.868;10.730;2023-08-06T08:24:32;1.03;;;0.67;;
25982;SDS011;13773;48.868;10.730;2023-08-06T08:26:57;1.30;;;0.70;;
25982;SDS011;13773;48.868;10.730;2023-08-06T08:29:23;2.43;;;0.73;;
25982;SDS011;13773;48.868;10.730;2023-08-06T08:31:49;2.17;;;0.77;;
25982;SDS011;13773;48.868;10.730;2023-08-06T08:34:18;1.20;;;0.90;;
25982;SDS011;13773;48.868;10.730;2023-08-06T08:36:44;1.37;;;0.80;;
25982;SDS011;13773;48.868;10.730;2023-08-06T08:39:12;1.73;;;0.90;;
25982;SDS011;13773;48.868;10.730;2023-08-06T08:41:38;0.67;;;0.60;;
25982;SDS011;13773;48.868;10.730;2023-08-06T08:44:08;1.03;;;0.70;;
25982;SDS011;13773;48.868;10.730;2023-08-06T08:46:35;0.77;;;0.73;;
25982;SDS011;13773;48.868;10.730;2023-08-06T08:49:03;0.60;;;0.60;;
25982;SDS011;13773;48.868;10.730;2023-08-06T08:51:29;0.80;;;0.53;;
25982;SDS011;13773;48.868;10.730;2023-08-06T08:53:56;1.77;;;0.57;;
25982;SDS011;13773;48.868;10.730;2023-08-06T08:56:23;1.33;;;0.60;;
25982;SDS011;13773;48.868;10.730;2023-08-06T08:58:49;0.70;;;0.60;;
25982;SDS011;13773;48.868;10.730;2023-08-06T09:01:16;0.83;;;0.60;;
25982;SDS011;13773;48.868;10.730;2023-08-06T09:03:45;1.03;;;0.50;;
25982;SDS011;13773;48.868;10.730;2023-08-06T09:06:12;0.33;;;0.30;;
25982;SDS011;13773;48.868;10.730;2023-08-06T09:09:21;0.40;;;0.40;;
25982;SDS011;13773;48.868;10.730;2023-08-06T09:11:36;3.43;;;0.50;;
25982;SDS011;13773;48.868;10.730;2023-08-06T09:14:10;0.60;;;0.43;;
25982;SDS011;13773;48.868;10.730;2023-08-06T09:16:36;0.53;;;0.40;;
25982;SDS011;13773;48.868;10.730;2023-08-06T09:19:09;0.40;;;0.40;;
25982;SDS011;13773;48.868;10.730;2023-08-06T09:21:39;0.50;;;0.40;;
25982;SDS011;13773;48.868;10.730;2023-08-06T09:24:08;0.87;;;0.40;;
25982;SDS011;13773;48.868;10.730;2023-08-06T09:26:38;0.37;;;0.33;;
25982;SDS011;13773;48.868;10.730;2023-08-06T09:29:05;0.40;;;0.30;;
25982;SDS011;13773;48.868;10.730;2023-08-06T09:31:33;0.30;;;0.23;;
25982;SDS011;13773;48.868;10.730;2023-08-06T09:34:19;0.70;;;0.40;;
25982;SDS011;13773;48.868;10.730;2023-08-06T09:36:49;0.70;;;0.30;;
25982;SDS011;13773;48.868;10.730;2023-08-06T09:39:18;1.20;;;0.40;;
25982;SDS011;13773;48.868;10.730;2023-08-06T09:41:45;0.40;;;0.40;;
25982;SDS011;13773;48.868;10.730;2023-08-06T09:44:16;0.33;;;0.33;;
25982;SDS011;13773;48.868;10.730;2023-08-06T09:46:53;0.20;;;0.20;;
25982;SDS011;13773;48.868;10.730;2023-08-06T09:49:22;0.30;;;0.30;;
25982;SDS011;13773;48.868;10.730;2023-08-06T09:51:52;0.30;;;0.30;;
25982;SDS011;13773;48.868;10.730;2023-08-06T09:54:22;0.63;;;0.40;;
25982;SDS011;13773;48.868;10.730;2023-08-06T09:56:48;0.67;;;0.40;;
25982;SDS011;13773;48.868;10.730;2023-08-06T09:59:14;0.50;;;0.50;;
25982;SDS011;13773;48.868;10.730;2023-08-06T10:01:41;0.77;;;0.60;;
25982;SDS011;13773;48.868;10.730;2023-08-06T10:04:07;1.87;;;1.30;;
25982;SDS011;13773;48.868;10.730;2023-08-06T10:06:37;4.67;;;2.47;;
25982;SDS011;13773;48.868;10.730;2023-08-06T10:09:03;0.87;;;0.80;;
25982;SDS011;13773;48.868;10.730;2023-08-06T10:11:30;14.17;;;8.67;;
25982;SDS011;13773;48.868;10.730;2023-08-06T10:16:51;2.20;;;1.73;;
25982;SDS011;13773;48.868;10.730;2023-08-06T10:19:17;10.30;;;5.07;;
25982;SDS011;13773;48.868;10.730;2023-08-06T10:24:49;0.87;;;0.77;;
25982;SDS011;13773;48.868;10.730;2023-08-06T10:27:28;0.60;;;0.60;;
25982;SDS011;13773;48.868;10.730;2023-08-06T10:32:49;1.43;;;0.50;;
25982;SDS011;13773;48.868;10.730;2023-08-06T10:35:36;0.47;;;0.40;;
25982;SDS011;13773;48.868;10.730;2023-08-06T10:38:10;0.53;;;0.30;;
25982;SDS011;13773;48.868;10.730;2023-08-06T10:40:42;0.30;;;0.30;;
25982;SDS011;13773;48.868;10.730;2023-08-06T10:43:29;1.13;;;0.40;;
25982;SDS011;13773;48.868;10.730;2023-08-06T10:46:01;0.67;;;0.50;;
25982;SDS011;13773;48.868;10.730;2023-08-06T10:48:35;0.50;;;0.50;;
25982;SDS011;13773;48.868;10.730;2023-08-06T10:51:09;0.70;;;0.50;;
25982;SDS011;13773;48.868;10.730;2023-08-06T10:53:36;0.90;;;0.67;;
25982;SDS011;13773;48.868;10.730;2023-08-06T10:56:02;0.80;;;0.40;;
25982;SDS011;13773;48.868;10.730;2023-08-06T10:59:03;0.50;;;0.50;;
25982;SDS011;13773;48.868;10.730;2023-08-06T11:01:29;0.30;;;0.20;;
25982;SDS011;13773;48.868;10.730;2023-08-06T11:03:55;0.67;;;0.30;;
25982;SDS011;13773;48.868;10.730;2023-08-06T11:06:22;0.50;;;0.40;;
25982;SDS011;13773;48.868;10.730;2023-08-06T11:08:49;0.60;;;0.50;;
25982;SDS011;13773;48.868;10.730;2023-08-06T11:11:16;0.63;;;0.20;;
25982;SDS011;13773;48.868;10.730;2023-08-06T11:13:45;0.50;;;0.30;;
25982;SDS011;13773;48.868;10.730;2023-08-06T11:16:12;0.30;;;0.30;;
25982;SDS011;13773;48.868;10.730;2023-08-06T11:18:43;0.40;;;0.30;;
25982;SDS011;13773;48.868;10.730;2023-08-06T11:21:09;0.80;;;0.33;;
25982;SDS011;13773;48.868;10.730;2023-08-06T11:23:36;0.20;;;0.20;;
25982;SDS011;13773;48.868;10.730;2023-08-06T11:26:02;0.50;;;0.30;;
25982;SDS011;13773;48.868;10.730;2023-08-06T11:28:28;0.30;;;0.30;;
25982;SDS011;13773;48.868;10.730;2023-08-06T11:30:54;0.40;;;0.30;;
25982;SDS011;13773;48.868;10.730;2023-08-06T11:33:24;0.57;;;0.50;;
25982;SDS011;13773;48.868;10.730;2023-08-06T11:35:50;0.53;;;0.53;;
25982;SDS011;13773;48.868;10.730;2023-08-06T11:38:17;0.70;;;0.60;;
25982;SDS011;13773;48.868;10.730;2023-08-06T11:40:46;4.10;;;0.80;;
25982;SDS011;13773;48.868;10.730;2023-08-06T11:43:12;2.50;;;0.60;;
25982;SDS011;13773;48.868;10.730;2023-08-06T11:45:39;0.83;;;0.70;;
25982;SDS011;13773;48.868;10.730;2023-08-06T11:48:05;1.20;;;0.57;;
25982;SDS011;13773;48.868;10.730;2023-08-06T11:50:36;0.30;;;0.30;;
25982;SDS011;13773;48.868;10.730;2023-08-06T11:53:06;1.60;;;0.70;;
25982;SDS011;13773;48.868;10.730;2023-08-06T11:55:32;0.30;;;0.30;;
25982;SDS011;13773;48.868;10.730;2023-08-06T11:57:58;0.80;;;0.57;;
25982;SDS011;13773;48.868;10.730;2023-08-06T12:00:28;0.80;;;0.60;;
25982;SDS011;13773;48.868;10.730;2023-08-06T12:02:54;0.70;;;0.40;;
25982;SDS011;13773;48.868;10.730;2023-08-06T12:05:29;0.97;;;0.40;;
25982;SDS011;13773;48.868;10.730;2023-08-06T12:07:59;1.50;;;0.60;;
25982;SDS011;13773;48.868;10.730;2023-08-06T12:10:27;0.40;;;0.40;;
25982;SDS011;13773;48.868;10.730;2023-08-06T12:12:54;0.30;;;0.30;;
25982;SDS011;13773;48.868;10.730;2023-08-06T12:15:20;0.30;;;0.30;;
25982;SDS011;13773;48.868;10.730;2023-08-06T12:17:47;0.53;;;0.50;;
25982;SDS011;13773;48.868;10.730;2023-08-06T12:20:12;0.50;;;0.50;;
25982;SDS011;13773;48.868;10.730;2023-08-06T12:22:38;0.40;;;0.40;;
25982;SDS011;13773;48.868;10.730;2023-08-06T12:25:11;0.30;;;0.30;;
25982;SDS011;13773;48.868;10.730;2023-08-06T12:27:38;0.30;;;0.30;;
25982;SDS011;13773;48.868;10.730;2023-08-06T12:30:05;0.30;;;0.30;;
25982;SDS011;13773;48.868;10.730;2023-08-06T12:32:33;0.80;;;0.60;;
25982;SDS011;13773;48.868;10.730;2023-08-06T12:34:59;0.40;;;0.40;;
25982;SDS011;13773;48.868;10.730;2023-08-06T12:37:26;0.53;;;0.53;;
25982;SDS011;13773;48.868;10.730;2023-08-06T12:39:52;0.30;;;0.30;;
25982;SDS011;13773;48.868;10.730;2023-08-06T12:42:18;0.40;;;0.30;;
25982;SDS011;13773;48.868;10.730;2023-08-06T12:44:44;0.30;;;0.30;;
25982;SDS011;13773;48.868;10.730;2023-08-06T12:47:09;0.40;;;0.40;;
25982;SDS011;13773;48.868;10.730;2023-08-06T12:49:35;0.60;;;0.50;;
25982;SDS011;13773;48.868;10.730;2023-08-06T12:52:01;0.73;;;0.43;;
25982;SDS011;13773;48.868;10.730;2023-08-06T12:54:30;0.70;;;0.70;;
25982;SDS011;13773;48.868;10.730;2023-08-06T12:57:01;1.10;;;1.00;;
25982;SDS011;13773;48.868;10.730;2023-08-06T12:59:28;1.30;;;1.20;;
25982;SDS011;13773;48.868;10.730;2023-08-06T13:01:53;1.00;;;0.90;;
25982;SDS011;13773;48.868;10.730;2023-08-06T13:04:19;1.43;;;1.33;;
25982;SDS011;13773;48.868;10.730;2023-08-06T13:06:45;2.80;;;1.03;;
25982;SDS011;13773;48.868;10.730;2023-08-06T13:09:12;2.30;;;1.97;;
25982;SDS011;13773;48.868;10.730;2023-08-06T13:11:39;1.50;;;1.20;;
25982;SDS011;13773;48.868;10.730;2023-08-06T13:14:05;0.60;;;0.60;;
25982;SDS011;13773;48.868;10.730;2023-08-06T13:16:35;0.80;;;0.60;;
25982;SDS011;13773;48.868;10.730;2023-08-06T13:19:03;0.80;;;0.80;;
25982;SDS011;13773;48.868;10.730;2023-08-06T13:21:33;0.60;;;0.60;;
25982;SDS011;13773;48.868;10.730;2023-08-06T13:24:01;1.20;;;0.80;;
25982;SDS011;13773;48.868;10.730;2023-08-06T13:26:28;0.80;;;0.70;;
25982;SDS011;13773;48.868;10.730;2023-08-06T13:28:56;1.00;;;0.70;;
25982;SDS011;13773;48.868;10.730;2023-08-06T13:31:25;0.93;;;0.60;;
25982;SDS011;13773;48.868;10.730;2023-08-06T13:33:51;0.80;;;0.80;;
25982;SDS011;13773;48.868;10.730;2023-08-06T13:36:19;0.73;;;0.70;;
25982;SDS011;13773;48.868;10.730;2023-08-06T13:38:45;0.80;;;0.80;;
25982;SDS011;13773;48.868;10.730;2023-08-06T13:41:10;0.83;;;0.83;;
25982;SDS011;13773;48.868;10.730;2023-08-06T13:43:36;1.10;;;1.00;;
25982;SDS011;13773;48.868;10.730;2023-08-06T13:46:02;2.40;;;1.20;;
25982;SDS011;13773;48.868;10.730;2023-08-06T13:48:28;1.23;;;0.90;;
25982;SDS011;13773;48.868;10.730;2023-08-06T13:50:53;1.00;;;0.80;;
25982;SDS011;13773;48.868;10.730;2023-08-06T13:53:19;1.73;;;1.00;;
25982;SDS011;13773;48.868;10.730;2023-08-06T13:55:45;1.13;;;1.03;;
25982;SDS011;13773;48.868;10.730;2023-08-06T13:58:10;2.77;;;0.90;;
25982;SDS011;13773;48.868;10.730;2023-08-06T14:00:36;1.33;;;1.00;;
25982;SDS011;13773;48.868;10.730;2023-08-06T14:03:02;1.20;;;1.10;;
25982;SDS011;13773;48.868;10.730;2023-08-06T14:05:28;1.17;;;1.00;;
25982;SDS011;13773;48.868;10.730;2023-08-06T14:07:54;2.00;;;1.00;;
25982;SDS011;13773;48.868;10.730;2023-08-06T14:10:19;1.67;;;1.10;;
25982;SDS011;13773;48.868;10.730;2023-08-06T14:12:45;1.53;;;1.40;;
25982;SDS011;13773;48.868;10.730;2023-08-06T14:15:11;1.70;;;1.30;;
25982;SDS011;13773;48.868;10.730;2023-08-06T14:17:37;2.17;;;1.40;;
25982;SDS011;13773;48.868;10.730;2023-08-06T14:20:03;1.90;;;1.50;;
25982;SDS011;13773;48.868;10.730;2023-08-06T14:22:30;2.53;;;1.77;;
25982;SDS011;13773;48.868;10.730;2023-08-06T14:24:57;2.30;;;1.50;;
25982;SDS011;13773;48.868;10.730;2023-08-06T14:27:24;3.97;;;2.00;;
25982;SDS011;13773;48.868;10.730;2023-08-06T14:29:50;1.80;;;1.33;;
25982;SDS011;13773;48.868;10.730;2023-08-06T14:32:16;1.77;;;1.53;;
25982;SDS011;13773;48.868;10.730;2023-08-06T14:34:45;1.60;;;1.50;;
25982;SDS011;13773;48.868;10.730;2023-08-06T14:37:11;2.27;;;1.43;;
25982;SDS011;13773;48.868;10.730;2023-08-06T14:39:36;2.60;;;1.53;;
25982;SDS011;13773;48.868;10.730;2023-08-06T14:42:03;2.00;;;1.50;;